Time;durP1;ratioP1;P1;durP2;ratioP2;P2;SDS_P1;SDS_P2;PMS_P1;PMS_P2;Temp;Humidity;BMP_temperature;BMP_pressure;BME280_temperature;BME280_humidity;BME280_pressure;Samples;Min_cycle;Max_cycle;Signal;HPM_P1;HPM_P2
2022/12/29 00:02:17;;;;;;;6.82;5.00;;;;;;;6.24;92.49;99314.13;5051743;28;20072;-81
2022/12/29 00:04:43;;;;;;;7.25;4.97;;;;;;;6.22;92.54;99309.88;5051785;28;20028;-82
2022/12/29 00:07:10;;;;;;;9.85;5.30;;;;;;;6.20;92.36;99302.19;5051682;28;20031;-81
2022/12/29 00:09:36;;;;;;;9.43;5.40;;;;;;;6.20;92.36;99289.25;5051711;28;20082;-81
2022/12/29 00:12:03;;;;;;;8.43;4.95;;;;;;;6.16;92.55;99282.50;5051593;28;20078;-81
2022/12/29 00:17:13;;;;;;;7.35;4.60;;;;;;;6.17;92.59;99294.53;5051482;28;20096;-81
2022/12/29 00:36:25;;;;;;;7.55;5.13;;;;;;;6.16;91.67;99274.75;5051544;28;20028;-81
2022/12/29 00:44:23;;;;;;;10.00;5.55;;;;;;;6.14;91.44;99266.19;5051227;28;20068;-80
2022/12/29 00:46:49;;;;;;;11.93;6.50;;;;;;;6.11;91.18;99249.94;5051324;28;20452;-80
2022/12/29 00:49:32;;;;;;;9.43;6.25;;;;;;;6.08;91.44;99237.97;5051209;28;20048;-80
2022/12/29 00:51:59;;;;;;;8.90;6.07;;;;;;;6.16;91.67;99255.81;5051859;28;20372;-80
2022/12/29 00:54:25;;;;;;;8.07;4.82;;;;;;;6.13;91.59;99249.00;5051272;28;20457;-80
2022/12/29 00:56:51;;;;;;;7.95;5.28;;;;;;;6.11;91.00;99243.03;5051134;28;20062;-80
2022/12/29 00:59:18;;;;;;;7.78;4.35;;;;;;;6.19;91.17;99259.13;5051077;28;20035;-80
2022/12/29 01:01:44;;;;;;;8.63;4.80;;;;;;;6.19;91.03;99247.91;5051202;28;20465;-80
2022/12/29 01:04:10;;;;;;;10.45;4.70;;;;;;;6.21;91.22;99249.56;5051233;28;20386;-80
2022/12/29 01:06:38;;;;;;;7.43;4.63;;;;;;;6.22;91.20;99253.00;5031437;28;20026;-80
2022/12/29 01:11:48;;;;;;;7.10;4.22;;;;;;;6.12;91.52;99243.88;5034755;28;20095;-81
2022/12/29 01:14:14;;;;;;;7.57;4.65;;;;;;;6.18;91.46;99251.41;5034727;28;20449;-80
2022/12/29 01:16:39;;;;;;;6.97;5.10;;;;;;;6.16;91.54;99237.72;5034872;28;20044;-80
2022/12/29 01:19:04;;;;;;;5.70;4.10;;;;;;;6.11;91.72;99240.47;5034866;28;20496;-80
2022/12/29 01:21:30;;;;;;;7.65;4.18;;;;;;;6.13;91.41;99233.47;5034919;28;20334;-80
2022/12/29 01:23:55;;;;;;;6.53;4.00;;;;;;;6.16;91.80;99242.88;5034697;28;20099;-81
2022/12/29 01:26:21;;;;;;;7.68;4.50;;;;;;;6.16;92.01;99237.72;5034510;28;20029;-81
2022/12/29 01:28:46;;;;;;;7.60;4.10;;;;;;;6.16;91.78;99241.13;5034610;28;20041;-81
2022/12/29 01:31:14;;;;;;;6.32;4.43;;;;;;;6.13;91.77;99230.91;5034247;28;20476;-80
2022/12/29 01:33:39;;;;;;;8.13;4.70;;;;;;;6.11;91.41;99230.13;5034761;28;20103;-80
2022/12/29 01:36:08;;;;;;;6.82;4.30;;;;;;;6.07;91.81;99227.66;5034476;28;20061;-81
2022/12/29 01:38:35;;;;;;;7.50;4.25;;;;;;;6.11;91.89;99230.13;5034780;28;20372;-80
2022/12/29 01:41:01;;;;;;;7.38;4.07;;;;;;;6.06;92.04;99229.41;5034482;28;20045;-80
2022/12/29 01:43:45;;;;;;;6.00;4.47;;;;;;;6.04;91.76;99220.03;5034201;28;20098;-80
2022/12/29 01:46:20;;;;;;;11.30;6.63;;;;;;;6.04;91.24;99220.03;5034112;28;20021;-80
2022/12/29 01:48:48;;;;;;;8.60;4.65;;;;;;;5.98;91.69;99211.59;5034325;28;20022;-80
2022/12/29 01:51:16;;;;;;;8.20;4.32;;;;;;;5.98;91.33;99214.19;5034158;28;20032;-80
2022/12/29 01:53:42;;;;;;;9.38;5.25;;;;;;;5.97;91.39;99209.91;5034223;28;20025;-80
2022/12/29 01:56:13;;;;;;;7.75;3.95;;;;;;;5.97;91.80;99209.91;5034080;28;20469;-80
2022/12/29 01:58:44;;;;;;;7.60;4.32;;;;;;;5.97;91.39;99215.06;5034010;28;20040;-80
2022/12/29 02:01:10;;;;;;;;;;;;;;;5.99;91.41;99205.53;5034334;28;20031;-80
2022/12/29 02:03:36;;;;;;;5.65;3.88;;;;;;;5.96;91.30;99197.03;5034151;28;19905;-80
2022/12/29 02:06:12;;;;;;;8.23;4.45;;;;;;;6.00;91.01;99206.38;5034042;28;20029;-80
2022/12/29 02:08:38;;;;;;;7.15;4.25;;;;;;;5.89;91.01;99196.34;5032516;28;20025;-80
2022/12/29 02:11:05;;;;;;;6.32;4.13;;;;;;;5.93;90.85;99194.56;5034137;28;20061;-80
2022/12/29 02:13:30;;;;;;;5.68;3.92;;;;;;;5.95;90.71;99200.53;5033713;28;20044;-80
2022/12/29 02:16:10;;;;;;;6.80;4.22;;;;;;;5.94;90.73;99199.69;5033955;28;20045;-80
2022/12/29 02:19:07;;;;;;;6.72;4.22;;;;;;;5.92;90.97;99191.13;5033932;28;20036;-80
2022/12/29 02:22:11;;;;;;;5.10;3.72;;;;;;;5.90;90.75;99195.50;5033077;28;20072;-80
2022/12/29 02:24:51;;;;;;;9.02;4.40;;;;;;;5.92;90.93;99192.88;5033743;28;20060;-80
2022/12/29 02:27:47;;;;;;;4.45;3.88;;;;;;;5.89;90.76;99198.94;5033350;28;20021;-80
2022/12/29 02:30:36;;;;;;;5.80;4.05;;;;;;;5.89;90.54;99195.53;5033248;28;20026;-80
2022/12/29 02:33:09;;;;;;;9.13;4.30;;;;;;;5.86;90.56;99186.16;5033062;28;20061;-80
2022/12/29 02:35:44;;;;;;;8.85;4.35;;;;;;;5.87;90.35;99168.91;5032950;28;20457;-80
2022/12/29 02:38:18;;;;;;;7.28;4.50;;;;;;;5.86;90.22;99178.41;5033471;28;20046;-81
2022/12/29 02:40:51;;;;;;;5.43;4.30;;;;;;;5.81;89.38;99158.75;5033659;28;20028;-81
2022/12/29 02:43:39;;;;;;;6.88;4.05;;;;;;;5.85;89.47;99163.75;5032082;28;20030;-80
2022/12/29 02:46:12;;;;;;;4.78;3.95;;;;;;;5.80;89.64;99151.91;5032926;28;20091;-80
2022/12/29 02:48:45;;;;;;;5.28;3.85;;;;;;;5.76;89.62;99146.84;5033291;28;20029;-80
2022/12/29 02:51:20;;;;;;;4.28;3.47;;;;;;;5.86;89.61;99159.47;5033257;28;20464;-80
2022/12/29 02:56:30;;;;;;;4.68;3.55;;;;;;;5.90;88.70;99161.00;5032923;28;20103;-81
2022/12/29 02:58:55;;;;;;;11.15;4.30;;;;;;;5.90;88.58;99143.78;5033147;28;20021;-81
2022/12/29 03:02:16;;;;;;;6.70;3.95;;;;;;;6.01;88.28;99153.75;5032767;28;20033;-80
2022/12/29 03:04:36;;;;;;;5.45;3.90;;;;;;;6.06;87.71;99161.34;5049919;28;20473;-81
2022/12/29 03:07:21;;;;;;;5.75;3.65;;;;;;;6.01;88.13;99146.00;5050278;28;20514;-81
2022/12/29 03:09:59;;;;;;;4.88;3.42;;;;;;;6.06;88.65;99149.25;5050309;28;20140;-80
2022/12/29 03:18:39;;;;;;;7.82;3.70;;;;;;;6.09;88.53;99154.34;5050192;28;20119;-81
2022/12/29 03:21:11;;;;;;;6.00;3.30;;;;;;;6.16;88.18;99160.97;5050067;28;20035;-81
2022/12/29 03:23:39;;;;;;;4.45;3.47;;;;;;;6.06;88.35;99151.00;5049665;28;20047;-81
2022/12/29 03:26:08;;;;;;;4.47;3.13;;;;;;;6.19;88.66;99166.03;5050023;28;20086;-81
2022/12/29 03:28:46;;;;;;;6.53;3.67;;;;;;;6.24;88.41;99155.53;5049567;28;20091;-80
2022/12/29 03:31:14;;;;;;;5.43;3.45;;;;;;;6.27;89.24;99160.56;5050026;28;20028;-81
2022/12/29 03:33:41;;;;;;;4.28;2.80;;;;;;;6.24;89.18;99145.19;5048914;28;20029;-81
2022/12/29 03:36:11;;;;;;;5.47;3.38;;;;;;;6.29;88.86;99147.59;5034186;28;20061;-81
2022/12/29 03:38:44;;;;;;;5.60;3.30;;;;;;;6.31;88.67;99141.44;5032263;28;20068;-80
2022/12/29 03:41:15;;;;;;;3.58;3.15;;;;;;;6.30;88.45;99144.09;5032752;28;20044;-81
2022/12/29 03:43:41;;;;;;;3.97;3.28;;;;;;;6.28;88.49;99135.53;5032313;28;20100;-81
2022/12/29 03:46:06;;;;;;;6.22;3.53;;;;;;;6.35;88.89;99140.44;5030828;28;20547;-80
2022/12/29 03:48:32;;;;;;;4.47;3.58;;;;;;;6.34;88.87;99138.75;5030494;28;20053;-79
2022/12/29 03:50:58;;;;;;;3.80;2.97;;;;;;;6.30;88.40;99126.00;5032134;28;20028;-80
2022/12/29 03:53:24;;;;;;;4.05;3.10;;;;;;;6.38;88.43;99139.50;5032087;28;20021;-80
2022/12/29 03:55:49;;;;;;;3.97;3.20;;;;;;;6.41;88.12;99131.63;5031988;28;20052;-81
2022/12/29 03:58:14;;;;;;;5.13;3.03;;;;;;;6.39;88.17;99117.88;5032046;28;20145;-81
2022/12/29 04:00:40;;;;;;;3.88;3.25;;;;;;;6.33;87.90;99102.63;5031683;28;20017;-81
2022/12/29 04:03:05;;;;;;;5.28;3.63;;;;;;;6.38;87.63;99111.88;5031750;28;20458;-81
2022/12/29 04:05:31;;;;;;;6.85;4.32;;;;;;;6.40;87.63;99117.81;5031581;28;20431;-81
2022/12/29 04:07:56;;;;;;;7.90;4.28;;;;;;;6.43;87.61;99114.28;5032113;28;20029;-80
2022/12/29 04:10:21;;;;;;;8.40;5.15;;;;;;;6.44;87.38;99106.44;5031984;28;20033;-80
2022/12/29 04:12:47;;;;;;;7.85;4.72;;;;;;;6.38;87.16;99098.94;5030493;28;20083;-80
2022/12/29 04:15:12;;;;;;;8.15;4.45;;;;;;;6.43;86.79;99107.38;5030683;28;20017;-80
2022/12/29 04:17:38;;;;;;;5.78;4.00;;;;;;;6.49;86.92;99095.97;5031608;28;20108;-80
2022/12/29 04:22:47;;;;;;;6.22;4.15;;;;;;;6.52;86.61;99110.50;5032052;28;20546;-80
2022/12/29 04:25:13;;;;;;;5.53;4.00;;;;;;;6.51;86.75;99117.44;5031948;28;20029;-81
2022/12/29 04:27:38;;;;;;;7.07;3.53;;;;;;;6.54;86.35;99111.31;5031759;28;20083;-81
2022/12/29 04:30:04;;;;;;;4.18;3.40;;;;;;;6.46;86.16;99096.91;5031727;28;20071;-81
2022/12/29 04:32:29;;;;;;;4.50;3.22;;;;;;;6.55;86.42;99115.56;5031677;28;20619;-81
2022/12/29 04:34:55;;;;;;;4.20;3.53;;;;;;;6.53;86.33;99109.59;5032204;28;20025;-81
2022/12/29 04:37:20;;;;;;;4.95;3.20;;;;;;;6.52;86.49;99103.59;5031601;28;20092;-81
2022/12/29 04:39:45;;;;;;;5.68;3.50;;;;;;;6.54;86.05;99104.38;5031263;28;20037;-81
2022/12/29 04:42:11;;;;;;;4.68;2.95;;;;;;;6.54;85.69;99088.03;5031675;28;20021;-81
2022/12/29 04:44:36;;;;;;;3.75;2.80;;;;;;;6.55;85.46;99079.34;5031663;28;20025;-81
2022/12/29 04:47:01;;;;;;;4.28;3.38;;;;;;;6.58;84.75;99084.41;5035328;28;20024;-81
2022/12/29 04:49:26;;;;;;;5.97;3.28;;;;;;;6.66;84.31;99097.88;5035487;28;20025;-81
2022/12/29 04:51:52;;;;;;;3.72;3.15;;;;;;;6.66;84.17;99103.06;5035661;28;20025;-81
2022/12/29 04:54:17;;;;;;;3.88;3.00;;;;;;;6.67;84.36;99091.81;5035572;28;20345;-81
2022/12/29 04:56:42;;;;;;;6.15;3.30;;;;;;;6.68;83.96;99094.31;5033866;28;20029;-81
2022/12/29 04:59:08;;;;;;;5.03;3.20;;;;;;;6.69;83.55;99093.41;5035295;28;20030;-80
2022/12/29 05:01:33;;;;;;;4.30;3.00;;;;;;;6.70;83.37;99089.94;5034967;28;20018;-81
2022/12/29 05:03:58;;;;;;;6.53;3.40;;;;;;;6.77;82.87;99093.09;5035433;28;20100;-81
2022/12/29 05:06:24;;;;;;;4.22;3.22;;;;;;;6.80;82.85;99090.41;5034898;28;20048;-81
2022/12/29 05:08:49;;;;;;;4.85;3.10;;;;;;;6.82;83.01;99088.59;5035104;28;20108;-81
2022/12/29 05:11:14;;;;;;;5.15;3.45;;;;;;;6.79;82.67;99080.13;5035081;28;20025;-81
2022/12/29 05:13:40;;;;;;;5.22;3.03;;;;;;;6.77;82.81;99074.16;5034832;28;20573;-81
2022/12/29 05:16:05;;;;;;;6.28;3.28;;;;;;;6.80;82.71;99071.44;5034918;28;20025;-81
2022/12/29 05:18:30;;;;;;;5.82;3.17;;;;;;;6.81;82.34;99076.56;5035106;28;20033;-81
2022/12/29 05:20:56;;;;;;;4.10;3.20;;;;;;;6.87;82.51;99080.63;5034797;28;20468;-81
2022/12/29 05:23:21;;;;;;;5.45;3.28;;;;;;;6.82;82.16;99070.47;5034770;28;20104;-81
2022/12/29 05:25:46;;;;;;;5.60;3.13;;;;;;;6.91;82.07;99079.59;5034757;28;20108;-80
2022/12/29 05:28:13;;;;;;;6.38;3.03;;;;;;;6.90;82.07;99071.00;5034639;28;20029;-80
2022/12/29 05:30:39;;;;;;;3.58;3.05;;;;;;;6.77;81.88;99041.34;5034365;28;20022;-80
2022/12/29 05:33:06;;;;;;;4.07;3.05;;;;;;;6.84;81.89;99047.97;5034652;28;20049;-80
2022/12/29 05:35:32;;;;;;;4.30;3.10;;;;;;;6.84;82.12;99058.31;5034437;28;20018;-80
2022/12/29 05:37:57;;;;;;;4.25;3.38;;;;;;;6.85;82.45;99053.97;5034417;28;20376;-80
2022/12/29 05:40:22;;;;;;;4.53;3.15;;;;;;;6.83;82.31;99050.63;5034431;28;20457;-80
2022/12/29 05:42:48;;;;;;;4.72;3.33;;;;;;;6.84;82.52;99045.38;5034462;28;20021;-81
2022/12/29 05:45:13;;;;;;;5.28;3.30;;;;;;;6.80;82.37;99043.81;5034361;28;20017;-81
2022/12/29 05:47:39;;;;;;;3.95;3.00;;;;;;;6.90;82.49;99062.38;5033905;28;20473;-81
2022/12/29 05:50:05;;;;;;;3.95;2.97;;;;;;;6.83;82.26;99046.28;5034325;28;20075;-81
2022/12/29 05:52:30;;;;;;;4.55;3.03;;;;;;;6.94;81.83;99064.78;5034112;28;20072;-81
2022/12/29 05:54:56;;;;;;;3.92;3.13;;;;;;;6.95;82.13;99058.72;5034391;28;20025;-81
2022/12/29 05:57:21;;;;;;;5.05;3.05;;;;;;;6.93;81.94;99051.91;5031886;28;20068;-81
2022/12/29 05:59:46;;;;;;;3.65;2.80;;;;;;;6.94;82.13;99044.06;5033926;28;20029;-81
2022/12/29 06:02:11;;;;;;;4.57;3.20;;;;;;;6.97;81.36;99049.13;5033052;28;20026;-80
2022/12/29 06:04:37;;;;;;;4.20;3.35;;;;;;;6.94;81.45;99046.66;5034115;28;20031;-81
2022/12/29 06:07:02;;;;;;;5.07;3.40;;;;;;;7.00;81.53;99055.94;5034091;28;20018;-81
2022/12/29 06:09:27;;;;;;;4.72;3.05;;;;;;;6.98;81.51;99052.56;5033803;28;20033;-80
2022/12/29 06:11:53;;;;;;;4.20;2.97;;;;;;;6.97;81.37;99056.91;5033999;28;20018;-80
2022/12/29 06:14:18;;;;;;;5.35;3.47;;;;;;;6.95;81.63;99048.38;5034075;28;20120;-80
2022/12/29 06:16:43;;;;;;;4.38;3.20;;;;;;;6.93;81.20;99044.16;5033613;28;20028;-80
2022/12/29 06:19:09;;;;;;;4.88;3.30;;;;;;;7.02;81.28;99061.06;5032666;28;20385;-80
2022/12/29 06:21:34;;;;;;;5.90;3.33;;;;;;;6.95;81.58;99035.44;5033696;28;20024;-81
2022/12/29 06:24:00;;;;;;;4.15;3.20;;;;;;;6.97;81.20;99038.78;5033801;28;20573;-81
2022/12/29 06:26:25;;;;;;;3.97;3.00;;;;;;;6.91;81.14;99035.59;5033666;28;20032;-80
2022/12/29 06:28:50;;;;;;;5.25;3.42;;;;;;;6.91;81.46;99049.41;5033477;28;20028;-80
2022/12/29 06:31:16;;;;;;;6.57;3.97;;;;;;;6.91;81.19;99061.47;5033478;28;20013;-80
2022/12/29 06:33:41;;;;;;;4.35;3.15;;;;;;;6.85;81.46;99051.38;5032121;28;20025;-80
2022/12/29 06:36:07;;;;;;;4.65;3.28;;;;;;;6.90;81.62;99059.81;5033407;28;20350;-80
2022/12/29 06:38:32;;;;;;;4.15;2.70;;;;;;;6.90;81.68;99058.06;5033103;28;20069;-80
2022/12/29 06:40:57;;;;;;;5.40;3.20;;;;;;;6.92;81.41;99061.44;5033415;28;20029;-80
2022/12/29 06:43:23;;;;;;;5.45;3.30;;;;;;;6.99;81.68;99056.84;5033352;28;20014;-80
2022/12/29 06:45:48;;;;;;;5.75;3.78;;;;;;;6.97;81.38;99053.47;5033021;28;20164;-80
2022/12/29 06:48:13;;;;;;;5.15;3.47;;;;;;;7.00;80.58;99059.38;5032031;28;20021;-80
2022/12/29 06:50:39;;;;;;;4.55;3.50;;;;;;;6.95;80.57;99052.69;5033413;28;20026;-80
2022/12/29 06:53:04;;;;;;;5.60;3.40;;;;;;;7.05;80.34;99059.19;5033301;28;20017;-80
2022/12/29 06:55:30;;;;;;;7.05;3.50;;;;;;;7.09;80.82;99070.25;5032773;28;20036;-80
2022/12/29 06:57:56;;;;;;;6.95;4.03;;;;;;;7.07;80.88;99065.13;5033039;28;20041;-80
2022/12/29 07:00:23;;;;;;;5.70;3.80;;;;;;;7.11;81.04;99071.03;5032892;28;20030;-80
2022/12/29 07:02:48;;;;;;;5.78;3.55;;;;;;;7.06;80.69;99062.59;5032664;28;20540;-80
2022/12/29 07:05:13;;;;;;;5.38;3.75;;;;;;;7.12;80.90;99073.56;5032973;28;20105;-80
2022/12/29 07:07:39;;;;;;;5.68;4.13;;;;;;;7.13;80.85;99072.66;5032461;28;20022;-80
2022/12/29 07:10:04;;;;;;;7.10;4.43;;;;;;;7.14;80.63;99079.50;5032856;28;20030;-80
2022/12/29 07:12:30;;;;;;;7.15;5.53;;;;;;;7.13;80.58;99074.41;5032612;28;20085;-80
2022/12/29 07:14:55;;;;;;;7.32;4.97;;;;;;;7.11;80.49;99058.06;5032504;28;20463;-80
2022/12/29 07:17:20;;;;;;;8.40;4.95;;;;;;;7.19;80.80;99067.19;5032782;28;20365;-80
2022/12/29 07:19:45;;;;;;;9.70;5.45;;;;;;;7.19;80.72;99066.38;5032639;28;20033;-80
2022/12/29 07:22:11;;;;;;;7.90;4.40;;;;;;;7.30;80.90;99076.28;5032896;28;20457;-80
2022/12/29 07:24:36;;;;;;;7.28;4.38;;;;;;;7.31;80.60;99075.38;5032238;28;20033;-80
2022/12/29 07:27:02;;;;;;;6.80;4.32;;;;;;;7.28;80.91;99065.13;5032568;28;20021;-80
2022/12/29 07:29:27;;;;;;;5.30;3.63;;;;;;;7.32;80.70;99067.53;5031040;28;20025;-80
2022/12/29 07:31:52;;;;;;;6.50;4.03;;;;;;;7.36;80.46;99065.66;5032220;28;20021;-80
2022/12/29 07:34:17;;;;;;;5.75;3.88;;;;;;;7.37;80.35;99055.22;5032890;28;20026;-80
2022/12/29 07:36:43;;;;;;;7.43;4.88;;;;;;;7.42;80.57;99066.25;5032184;28;20017;-80
2022/12/29 07:39:08;;;;;;;8.23;4.40;;;;;;;7.46;80.45;99060.03;5032454;28;20056;-80
2022/12/29 07:41:34;;;;;;;7.50;4.30;;;;;;;7.37;80.24;99049.19;5031877;28;20036;-80
2022/12/29 07:44:00;;;;;;;8.32;4.25;;;;;;;7.49;80.50;99070.22;5029289;28;20029;-80
2022/12/29 07:46:25;;;;;;;7.47;4.10;;;;;;;7.49;80.25;99059.03;5029800;28;20053;-80
2022/12/29 07:48:50;;;;;;;8.80;4.45;;;;;;;7.51;80.26;99062.41;5029115;28;20046;-80
2022/12/29 07:51:16;;;;;;;6.45;4.10;;;;;;;7.60;80.32;99064.59;5029690;28;20029;-80
2022/12/29 07:53:41;;;;;;;7.45;4.68;;;;;;;7.56;80.16;99054.44;5029327;28;20029;-80
2022/12/29 07:56:06;;;;;;;9.23;5.28;;;;;;;7.63;80.35;99071.41;5029536;28;20045;-80
2022/12/29 07:58:32;;;;;;;9.52;4.88;;;;;;;7.66;80.21;99082.44;5029324;28;20041;-80
2022/12/29 08:00:57;;;;;;;9.40;4.90;;;;;;;7.64;80.43;99073.09;5029642;28;20117;-80
2022/12/29 08:03:24;;;;;;;10.25;4.75;;;;;;;7.75;80.14;99083.78;5029415;28;20037;-80
2022/12/29 08:05:50;;;;;;;8.82;4.82;;;;;;;7.71;80.24;99069.28;5028994;28;20022;-80
2022/12/29 08:08:15;;;;;;;7.63;4.13;;;;;;;7.84;80.30;99075.63;5029485;28;20034;-80
2022/12/29 08:10:41;;;;;;;7.90;4.47;;;;;;;7.87;79.98;99072.06;5029293;28;20033;-80
2022/12/29 08:13:06;;;;;;;10.30;4.80;;;;;;;7.84;79.82;99074.81;5012967;28;20512;-80
2022/12/29 08:15:31;;;;;;;10.30;5.03;;;;;;;7.93;79.76;99077.81;5031138;28;20137;-80
2022/12/29 08:17:56;;;;;;;8.27;4.60;;;;;;;7.98;79.94;99087.97;5032104;28;20533;-80
2022/12/29 08:20:22;;;;;;;11.35;4.97;;;;;;;7.92;79.90;99062.31;5033847;28;20499;-80
2022/12/29 08:22:47;;;;;;;10.38;4.85;;;;;;;7.97;80.06;99070.75;5034309;28;20060;-80
2022/12/29 08:25:13;;;;;;;8.85;4.72;;;;;;;8.04;80.19;99071.28;5035814;28;20045;-80
2022/12/29 08:27:38;;;;;;;16.08;9.25;;;;;;;8.04;80.29;99063.50;5035531;28;20021;-80
2022/12/29 08:30:04;;;;;;;11.68;6.55;;;;;;;8.10;80.12;99065.84;5034537;28;20026;-80
2022/12/29 08:32:29;;;;;;;10.85;5.78;;;;;;;8.17;80.34;99069.81;5036171;28;20104;-79
2022/12/29 08:34:55;;;;;;;6.88;4.88;;;;;;;8.13;80.11;99047.53;5035580;28;20021;-80
2022/12/29 08:37:20;;;;;;;5.57;4.28;;;;;;;8.20;80.17;99065.31;5035587;28;20030;-80
2022/12/29 08:39:45;;;;;;;8.65;4.70;;;;;;;8.20;80.48;99061.91;5035241;28;20045;-80
2022/12/29 08:42:11;;;;;;;6.03;4.65;;;;;;;8.23;80.13;99069.56;5035555;28;20476;-80
2022/12/29 08:44:36;;;;;;;6.47;4.75;;;;;;;8.19;80.42;99055.03;5035555;28;20384;-80
2022/12/29 08:47:01;;;;;;;5.97;4.10;;;;;;;8.29;80.50;99074.44;5035285;28;20025;-80
2022/12/29 08:49:27;;;;;;;6.20;4.50;;;;;;;8.24;80.41;99071.22;5035602;28;20029;-80
2022/12/29 08:51:52;;;;;;;8.35;4.95;;;;;;;8.30;80.39;99086.53;5035570;28;20492;-80
2022/12/29 08:54:18;;;;;;;11.02;6.00;;;;;;;8.33;80.45;99086.34;5034073;28;20026;-80
2022/12/29 08:56:43;;;;;;;9.13;5.20;;;;;;;8.31;80.38;99074.38;5044657;28;20025;-80
2022/12/29 08:59:08;;;;;;;9.60;5.60;;;;;;;8.38;80.29;99071.44;5055068;28;20033;-80
2022/12/29 09:01:36;;;;;;;7.13;4.65;;;;;;;8.45;80.09;99070.25;5054892;28;20021;-80
2022/12/29 09:04:01;;;;;;;6.78;4.95;;;;;;;8.49;80.03;99076.13;5054772;28;20029;-80
2022/12/29 09:06:27;;;;;;;7.10;4.70;;;;;;;8.54;79.87;99074.16;5053620;28;20027;-80
2022/12/29 09:08:54;;;;;;;11.38;5.78;;;;;;;8.57;79.67;99068.00;5054573;28;20021;-80
2022/12/29 09:11:22;;;;;;;10.43;6.80;;;;;;;8.61;79.86;99074.72;5054624;28;20020;-80
2022/12/29 09:13:48;;;;;;;10.75;5.97;;;;;;;8.56;79.66;99066.31;5054372;28;20441;-80
2022/12/29 09:16:14;;;;;;;11.35;6.32;;;;;;;8.58;79.40;99075.69;5054673;28;20019;-80
2022/12/29 09:18:39;;;;;;;9.93;5.25;;;;;;;8.64;79.69;99077.19;5054288;28;20029;-80
2022/12/29 09:21:06;;;;;;;10.82;6.03;;;;;;;8.69;79.71;99078.63;5054774;28;20025;-80
2022/12/29 09:23:32;;;;;;;7.22;5.63;;;;;;;8.72;79.54;99077.63;5051432;28;20017;-80
2022/12/29 09:25:57;;;;;;;10.35;5.78;;;;;;;8.77;79.64;99085.22;5036534;28;20040;-80
2022/12/29 09:28:23;;;;;;;6.90;4.80;;;;;;;8.76;79.60;99073.97;5034311;28;20108;-80
2022/12/29 09:30:50;;;;;;;11.93;7.53;;;;;;;8.82;79.54;99081.47;5032730;28;20365;-80
2022/12/29 09:33:15;;;;;;;15.63;8.52;;;;;;;8.87;79.77;99092.47;5048559;28;20029;-80
2022/12/29 09:35:49;;;;;;;12.45;7.35;;;;;;;8.84;79.71;99066.66;5054174;28;20025;-80
2022/12/29 09:38:15;;;;;;;13.25;7.20;;;;;;;8.89;79.55;99066.41;5053979;28;20499;-80
2022/12/29 09:40:43;;;;;;;16.02;8.77;;;;;;;8.92;79.58;99059.31;5053725;28;20449;-80
2022/12/29 09:43:32;;;;;;;11.95;7.78;;;;;;;9.06;79.55;99070.78;5054001;28;20028;-80
2022/12/29 09:46:06;;;;;;;9.90;6.20;;;;;;;9.08;79.48;99069.81;5053638;28;20053;-80
2022/12/29 09:48:37;;;;;;;12.43;7.15;;;;;;;9.00;79.34;99054.59;5052668;28;20422;-80
2022/12/29 09:51:10;;;;;;;10.05;5.88;;;;;;;9.12;79.35;99067.91;5053775;28;20025;-80
2022/12/29 09:53:44;;;;;;;8.32;5.13;;;;;;;9.15;79.28;99070.34;5053823;28;20029;-81
2022/12/29 09:56:19;;;;;;;8.68;5.00;;;;;;;9.15;79.27;99066.00;5053973;28;20025;-81
2022/12/29 09:59:00;;;;;;;8.73;5.50;;;;;;;9.11;78.74;99056.66;5052253;28;20091;-81
2022/12/29 10:01:46;;;;;;;9.77;5.75;;;;;;;9.11;78.65;99063.63;5053223;28;20048;-80
2022/12/29 10:04:12;;;;;;;6.93;4.38;;;;;;;8.97;78.77;99062.56;5053676;28;20029;-80
2022/12/29 10:07:03;;;;;;;6.38;5.07;;;;;;;8.83;79.42;99066.72;5053786;28;20025;-80
2022/12/29 10:09:37;;;;;;;;;;;;;;;8.61;80.30;99060.00;5045904;28;20025;-82
2022/12/29 10:12:12;;;;;;;7.70;4.35;;;;;;;8.41;80.69;99047.13;5035431;28;19913;-80
2022/12/29 10:14:47;;;;;;;6.18;4.18;;;;;;;8.35;81.11;99061.19;5037039;28;20067;-79
2022/12/29 10:17:47;;;;;;;8.82;5.47;;;;;;;8.29;81.66;99061.47;5033560;28;20025;-76
2022/12/29 10:20:51;;;;;;;9.45;4.85;;;;;;;8.28;81.88;99052.00;5033159;28;20036;-78
2022/12/29 10:23:33;;;;;;;8.40;5.20;;;;;;;8.25;82.42;99052.97;5011169;28;20038;-78
2022/12/29 10:26:01;;;;;;;11.68;5.88;;;;;;;8.17;82.66;99033.50;5010727;28;20026;-78
2022/12/29 10:28:43;;;;;;;11.18;6.43;;;;;;;8.21;82.45;99029.84;5011251;28;20040;-78
2022/12/29 10:31:47;;;;;;;60.10;37.10;;;;;;;8.28;82.57;99044.22;5030308;28;20164;-79
2022/12/29 10:34:24;;;;;;;14.95;9.45;;;;;;;8.18;82.80;99036.03;4952618;28;20035;-78
2022/12/29 10:36:57;;;;;;;19.13;12.25;;;;;;;8.23;83.02;99034.06;4952312;28;20023;-78
2022/12/29 10:39:34;;;;;;;16.45;8.43;;;;;;;8.24;83.19;99038.34;4950199;29;20758;-78
2022/12/29 10:42:29;;;;;;;19.08;8.75;;;;;;;8.21;83.44;99020.31;4951947;28;20482;-78
2022/12/29 10:44:55;;;;;;;11.73;7.82;;;;;;;8.14;83.66;99020.69;4952030;28;20046;-78
2022/12/29 10:47:35;;;;;;;15.95;10.95;;;;;;;8.17;83.72;99036.94;4951922;29;20058;-78
2022/12/29 10:50:02;;;;;;;17.38;9.00;;;;;;;8.17;83.80;99017.94;4951701;29;20687;-78
2022/12/29 10:52:29;;;;;;;40.17;23.63;;;;;;;8.16;83.95;99024.88;4952348;29;20067;-78
2022/12/29 10:55:17;;;;;;;46.63;29.63;;;;;;;8.18;83.95;99020.47;4952003;28;20094;-78
2022/12/29 10:57:44;;;;;;;42.33;25.88;;;;;;;8.12;84.27;99012.13;4952033;29;20090;-78
2022/12/29 11:00:16;;;;;;;43.75;29.52;;;;;;;8.21;84.45;99029.84;4973666;28;20034;-78
2022/12/29 11:02:55;;;;;;;31.15;21.90;;;;;;;8.21;84.26;99029.84;4991016;28;20461;-78
2022/12/29 11:05:35;;;;;;;35.85;23.10;;;;;;;8.21;84.10;99022.06;4991011;28;20038;-78
2022/12/29 11:08:11;;;;;;;50.67;29.30;;;;;;;8.12;83.89;99018.16;4990264;28;20084;-79
2022/12/29 11:10:42;;;;;;;62.80;32.60;;;;;;;8.18;83.46;99028.25;5016329;28;20464;-78
2022/12/29 11:13:16;;;;;;;75.63;39.65;;;;;;;8.17;83.05;99016.19;5052445;28;20114;-78
2022/12/29 11:15:47;;;;;;;74.68;39.85;;;;;;;8.21;82.50;99011.69;5052599;28;20476;-78
2022/12/29 11:18:23;;;;;;;24.40;16.13;;;;;;;8.24;82.19;99016.75;5052451;28;20025;-78
2022/12/29 11:21:01;;;;;;;15.20;8.18;;;;;;;8.21;81.76;98998.72;5052137;28;20021;-79
2022/12/29 11:23:37;;;;;;;21.63;15.02;;;;;;;8.34;81.15;99007.59;5052710;28;20017;-79
2022/12/29 11:26:10;;;;;;;18.08;12.07;;;;;;;8.33;80.63;99000.72;5051802;28;20384;-80
2022/12/29 11:28:37;;;;;;;17.67;11.48;;;;;;;8.31;80.52;98996.56;5052131;28;20024;-80
2022/12/29 11:31:05;;;;;;;21.42;13.35;;;;;;;8.32;80.22;98990.44;5050648;28;20490;-80
2022/12/29 11:33:31;;;;;;;19.55;13.20;;;;;;;8.27;80.21;98988.06;5052396;28;20452;-80
2022/12/29 11:36:12;;;;;;;25.73;16.33;;;;;;;8.29;80.12;98986.22;5050496;28;20017;-80
2022/12/29 11:38:41;;;;;;;18.30;12.90;;;;;;;8.36;79.99;98989.38;5052049;28;20135;-80
2022/12/29 11:41:10;;;;;;;18.67;10.20;;;;;;;8.36;80.11;98986.78;5051663;28;20033;-80
2022/12/29 11:43:43;;;;;;;13.85;9.73;;;;;;;8.34;79.87;98978.22;5051597;28;20096;-80
2022/12/29 11:46:16;;;;;;;19.20;12.50;;;;;;;8.42;79.88;98992.53;5051898;28;20017;-80
2022/12/29 11:48:42;;;;;;;21.60;13.23;;;;;;;8.43;79.87;98978.66;5050736;28;20499;-80
2022/12/29 11:51:11;;;;;;;15.07;11.35;;;;;;;8.38;79.63;98975.44;5051337;28;20472;-80
2022/12/29 11:53:46;;;;;;;17.83;8.77;;;;;;;8.46;80.07;98985.44;5051585;28;20506;-80
2022/12/29 11:56:15;;;;;;;13.48;8.77;;;;;;;8.47;79.98;98998.38;5049678;28;20040;-81
2022/12/29 11:58:41;;;;;;;12.57;8.93;;;;;;;8.46;80.29;99001.84;5051705;28;20021;-80
2022/12/29 12:01:16;;;;;;;11.48;6.63;;;;;;;8.43;80.80;98988.22;5051490;28;20035;-81
2022/12/29 12:04:12;;;;;;;11.52;8.40;;;;;;;8.40;81.29;98989.19;5051286;28;20020;-79
2022/12/29 12:06:46;;;;;;;27.55;19.00;;;;;;;8.37;81.75;98983.31;5012166;28;20044;-80
2022/12/29 12:09:26;;;;;;;46.35;25.15;;;;;;;8.35;82.09;98980.75;5028928;28;20083;-81
2022/12/29 12:11:54;;;;;;;29.35;17.63;;;;;;;8.40;82.42;98991.78;5011902;28;20036;-82
2022/12/29 12:14:31;;;;;;;43.53;22.60;;;;;;;8.40;82.22;98976.22;5012498;28;20025;-81
2022/12/29 12:17:10;;;;;;;61.80;32.17;;;;;;;8.33;82.22;98979.97;5028517;28;20228;-82
2022/12/29 12:19:43;;;;;;;39.33;20.98;;;;;;;8.36;82.58;98979.00;5012522;28;20021;-81
2022/12/29 12:22:37;;;;;;;15.20;9.18;;;;;;;8.43;81.88;98973.47;5028828;28;20040;-81
2022/12/29 12:25:10;;;;;;;16.25;10.85;;;;;;;8.44;81.88;98972.56;5025138;28;20033;-82
2022/12/29 12:27:43;;;;;;;35.13;21.85;;;;;;;8.44;82.03;98971.72;5029069;28;20025;-81
2022/12/29 12:30:18;;;;;;;17.90;11.85;;;;;;;8.42;81.84;98966.59;5028451;28;20118;-81